sensor_id;sensor_type;location;lat;lon;timestamp;P1;durP1;ratioP1;P2;durP2;ratioP2
68866;SDS011;56451;44.804;20.476;2023-06-10T00:02:11;15.13;;;9.48;;
68866;SDS011;56451;44.804;20.476;2023-06-10T00:04:37;12.43;;;9.43;;
68866;SDS011;56451;44.804;20.476;2023-06-10T00:07:03;11.63;;;9.65;;
68866;SDS011;56451;44.804;20.476;2023-06-10T00:09:37;12.05;;;9.15;;
68866;SDS011;56451;44.804;20.476;2023-06-10T00:12:06;14.40;;;9.63;;
68866;SDS011;56451;44.804;20.476;2023-06-10T00:14:38;13.23;;;9.07;;
68866;SDS011;56451;44.804;20.476;2023-06-10T00:17:06;13.07;;;9.55;;
68866;SDS011;56451;44.804;20.476;2023-06-10T00:19:38;12.45;;;9.77;;
68866;SDS011;56451;44.804;20.476;2023-06-10T00:22:07;15.20;;;9.82;;
68866;SDS011;56451;44.804;20.476;2023-06-10T00:24:34;12.23;;;9.38;;
68866;SDS011;56451;44.804;20.476;2023-06-10T00:27:00;13.43;;;9.87;;
68866;SDS011;56451;44.804;20.476;2023-06-10T00:29:26;14.10;;;9.77;;
68866;SDS011;56451;44.804;20.476;2023-06-10T00:31:52;15.82;;;9.63;;
68866;SDS011;56451;44.804;20.476;2023-06-10T00:34:23;12.82;;;9.68;;
68866;SDS011;56451;44.804;20.476;2023-06-10T00:36:49;13.53;;;9.67;;
68866;SDS011;56451;44.804;20.476;2023-06-10T00:39:16;13.35;;;10.85;;
68866;SDS011;56451;44.804;20.476;2023-06-10T00:41:42;12.93;;;10.60;;
68866;SDS011;56451;44.804;20.476;2023-06-10T00:44:08;12.60;;;9.75;;
68866;SDS011;56451;44.804;20.476;2023-06-10T00:46:35;14.10;;;10.13;;
68866;SDS011;56451;44.804;20.476;2023-06-10T00:49:02;13.33;;;10.03;;
68866;SDS011;56451;44.804;20.476;2023-06-10T00:51:29;12.98;;;10.38;;
68866;SDS011;56451;44.804;20.476;2023-06-10T00:53:55;12.63;;;10.43;;
68866;SDS011;56451;44.804;20.476;2023-06-10T00:56:21;12.07;;;10.55;;
68866;SDS011;56451;44.804;20.476;2023-06-10T00:58:47;11.77;;;9.43;;
68866;SDS011;56451;44.804;20.476;2023-06-10T01:01:14;12.75;;;10.48;;
68866;SDS011;56451;44.804;20.476;2023-06-10T01:03:40;12.90;;;10.85;;
68866;SDS011;56451;44.804;20.476;2023-06-10T01:06:09;13.73;;;11.10;;
68866;SDS011;56451;44.804;20.476;2023-06-10T01:11:58;13.73;;;10.93;;
68866;SDS011;56451;44.804;20.476;2023-06-10T01:14:37;12.48;;;10.35;;
68866;SDS011;56451;44.804;20.476;2023-06-10T01:17:06;13.20;;;11.35;;
68866;SDS011;56451;44.804;20.476;2023-06-10T01:19:35;15.20;;;11.43;;
68866;SDS011;56451;44.804;20.476;2023-06-10T01:22:02;14.52;;;11.10;;
68866;SDS011;56451;44.804;20.476;2023-06-10T01:24:29;14.67;;;11.60;;
68866;SDS011;56451;44.804;20.476;2023-06-10T01:27:00;15.65;;;11.30;;
68866;SDS011;56451;44.804;20.476;2023-06-10T01:29:43;15.45;;;11.60;;
68866;SDS011;56451;44.804;20.476;2023-06-10T01:32:19;14.45;;;11.23;;
68866;SDS011;56451;44.804;20.476;2023-06-10T01:34:52;16.70;;;11.13;;
68866;SDS011;56451;44.804;20.476;2023-06-10T01:37:19;14.93;;;11.47;;
68866;SDS011;56451;44.804;20.476;2023-06-10T01:39:48;17.58;;;11.38;;
68866;SDS011;56451;44.804;20.476;2023-06-10T01:42:15;15.13;;;11.05;;
68866;SDS011;56451;44.804;20.476;2023-06-10T01:44:41;15.20;;;11.43;;
68866;SDS011;56451;44.804;20.476;2023-06-10T01:47:08;16.17;;;11.70;;
68866;SDS011;56451;44.804;20.476;2023-06-10T01:49:34;17.90;;;11.50;;
68866;SDS011;56451;44.804;20.476;2023-06-10T01:52:00;14.73;;;10.75;;
68866;SDS011;56451;44.804;20.476;2023-06-10T01:54:26;13.27;;;11.23;;
68866;SDS011;56451;44.804;20.476;2023-06-10T01:56:52;13.57;;;11.43;;
68866;SDS011;56451;44.804;20.476;2023-06-10T01:59:18;13.70;;;10.95;;
68866;SDS011;56451;44.804;20.476;2023-06-10T02:01:44;14.20;;;11.45;;
68866;SDS011;56451;44.804;20.476;2023-06-10T02:04:09;13.57;;;11.00;;
68866;SDS011;56451;44.804;20.476;2023-06-10T02:06:35;14.45;;;11.15;;
68866;SDS011;56451;44.804;20.476;2023-06-10T02:09:03;14.30;;;11.30;;
68866;SDS011;56451;44.804;20.476;2023-06-10T02:11:29;14.20;;;11.73;;
68866;SDS011;56451;44.804;20.476;2023-06-10T02:13:55;13.77;;;11.53;;
68866;SDS011;56451;44.804;20.476;2023-06-10T02:16:21;15.00;;;11.65;;
68866;SDS011;56451;44.804;20.476;2023-06-10T02:18:46;16.35;;;11.63;;
68866;SDS011;56451;44.804;20.476;2023-06-10T02:21:14;15.48;;;11.95;;
68866;SDS011;56451;44.804;20.476;2023-06-10T02:23:40;14.93;;;11.73;;
68866;SDS011;56451;44.804;20.476;2023-06-10T02:26:06;14.77;;;12.10;;
68866;SDS011;56451;44.804;20.476;2023-06-10T02:28:32;16.17;;;12.40;;
68866;SDS011;56451;44.804;20.476;2023-06-10T02:33:54;15.13;;;12.13;;
68866;SDS011;56451;44.804;20.476;2023-06-10T02:36:21;14.67;;;12.50;;
68866;SDS011;56451;44.804;20.476;2023-06-10T02:38:49;17.75;;;12.80;;
68866;SDS011;56451;44.804;20.476;2023-06-10T02:41:16;15.27;;;12.35;;
68866;SDS011;56451;44.804;20.476;2023-06-10T02:43:43;17.30;;;13.07;;
68866;SDS011;56451;44.804;20.476;2023-06-10T02:46:09;14.70;;;12.02;;
68866;SDS011;56451;44.804;20.476;2023-06-10T02:48:45;16.33;;;12.17;;
68866;SDS011;56451;44.804;20.476;2023-06-10T02:51:17;18.02;;;12.43;;
68866;SDS011;56451;44.804;20.476;2023-06-10T02:53:46;16.50;;;12.70;;
68866;SDS011;56451;44.804;20.476;2023-06-10T02:56:13;14.95;;;12.60;;
68866;SDS011;56451;44.804;20.476;2023-06-10T02:58:41;17.05;;;12.77;;
68866;SDS011;56451;44.804;20.476;2023-06-10T03:01:08;16.87;;;12.97;;
68866;SDS011;56451;44.804;20.476;2023-06-10T03:03:44;15.57;;;12.60;;
68866;SDS011;56451;44.804;20.476;2023-06-10T03:06:14;16.23;;;13.38;;
68866;SDS011;56451;44.804;20.476;2023-06-10T03:08:41;18.33;;;13.43;;
68866;SDS011;56451;44.804;20.476;2023-06-10T03:11:12;17.13;;;13.55;;
68866;SDS011;56451;44.804;20.476;2023-06-10T03:13:38;20.20;;;13.47;;
68866;SDS011;56451;44.804;20.476;2023-06-10T03:16:07;15.77;;;13.10;;
68866;SDS011;56451;44.804;20.476;2023-06-10T03:18:36;15.55;;;12.77;;
68866;SDS011;56451;44.804;20.476;2023-06-10T03:21:02;18.63;;;13.30;;
68866;SDS011;56451;44.804;20.476;2023-06-10T03:23:28;17.30;;;13.40;;
68866;SDS011;56451;44.804;20.476;2023-06-10T03:25:54;20.57;;;14.03;;
68866;SDS011;56451;44.804;20.476;2023-06-10T03:28:21;15.10;;;12.75;;
68866;SDS011;56451;44.804;20.476;2023-06-10T03:30:47;18.13;;;13.50;;
68866;SDS011;56451;44.804;20.476;2023-06-10T03:33:14;18.13;;;13.70;;
68866;SDS011;56451;44.804;20.476;2023-06-10T03:35:41;17.58;;;13.20;;
68866;SDS011;56451;44.804;20.476;2023-06-10T03:38:08;18.23;;;13.97;;
68866;SDS011;56451;44.804;20.476;2023-06-10T03:40:33;19.40;;;14.00;;
68866;SDS011;56451;44.804;20.476;2023-06-10T03:43:00;20.50;;;15.18;;
68866;SDS011;56451;44.804;20.476;2023-06-10T03:45:27;18.58;;;14.15;;
68866;SDS011;56451;44.804;20.476;2023-06-10T03:47:53;19.73;;;15.33;;
68866;SDS011;56451;44.804;20.476;2023-06-10T03:50:24;19.80;;;14.57;;
68866;SDS011;56451;44.804;20.476;2023-06-10T03:52:51;18.95;;;14.50;;
68866;SDS011;56451;44.804;20.476;2023-06-10T03:55:21;20.40;;;15.18;;
68866;SDS011;56451;44.804;20.476;2023-06-10T03:57:50;26.63;;;15.65;;
68866;SDS011;56451;44.804;20.476;2023-06-10T04:00:17;23.87;;;15.27;;
68866;SDS011;56451;44.804;20.476;2023-06-10T04:02:44;22.45;;;15.63;;
68866;SDS011;56451;44.804;20.476;2023-06-10T04:05:41;22.85;;;16.13;;
68866;SDS011;56451;44.804;20.476;2023-06-10T04:08:07;20.45;;;15.07;;
68866;SDS011;56451;44.804;20.476;2023-06-10T04:10:34;22.75;;;15.82;;
68866;SDS011;56451;44.804;20.476;2023-06-10T04:13:00;24.67;;;14.90;;
68866;SDS011;56451;44.804;20.476;2023-06-10T04:15:31;16.75;;;14.02;;
68866;SDS011;56451;44.804;20.476;2023-06-10T04:18:04;18.50;;;13.52;;
68866;SDS011;56451;44.804;20.476;2023-06-10T04:20:30;17.48;;;14.15;;
68866;SDS011;56451;44.804;20.476;2023-06-10T04:22:57;18.67;;;13.95;;
68866;SDS011;56451;44.804;20.476;2023-06-10T04:25:23;18.80;;;13.47;;
68866;SDS011;56451;44.804;20.476;2023-06-10T04:27:50;18.15;;;14.18;;
68866;SDS011;56451;44.804;20.476;2023-06-10T04:30:16;18.90;;;13.48;;
68866;SDS011;56451;44.804;20.476;2023-06-10T04:32:42;14.30;;;11.40;;
68866;SDS011;56451;44.804;20.476;2023-06-10T04:35:15;15.50;;;11.40;;
68866;SDS011;56451;44.804;20.476;2023-06-10T04:37:42;13.60;;;9.80;;
68866;SDS011;56451;44.804;20.476;2023-06-10T04:40:09;13.02;;;9.85;;
68866;SDS011;56451;44.804;20.476;2023-06-10T04:42:35;13.45;;;8.98;;
68866;SDS011;56451;44.804;20.476;2023-06-10T04:45:02;16.55;;;10.13;;
68866;SDS011;56451;44.804;20.476;2023-06-10T04:47:29;13.60;;;9.53;;
68866;SDS011;56451;44.804;20.476;2023-06-10T04:49:59;14.75;;;9.48;;
68866;SDS011;56451;44.804;20.476;2023-06-10T04:52:26;12.63;;;10.02;;
68866;SDS011;56451;44.804;20.476;2023-06-10T04:54:52;15.20;;;10.35;;
68866;SDS011;56451;44.804;20.476;2023-06-10T04:57:19;11.23;;;9.48;;
68866;SDS011;56451;44.804;20.476;2023-06-10T04:59:46;11.33;;;9.23;;
68866;SDS011;56451;44.804;20.476;2023-06-10T05:02:12;12.52;;;8.85;;
68866;SDS011;56451;44.804;20.476;2023-06-10T05:04:38;12.27;;;7.88;;
68866;SDS011;56451;44.804;20.476;2023-06-10T05:07:05;13.55;;;8.90;;
68866;SDS011;56451;44.804;20.476;2023-06-10T05:09:31;18.47;;;9.23;;
68866;SDS011;56451;44.804;20.476;2023-06-10T05:11:58;11.45;;;8.98;;
68866;SDS011;56451;44.804;20.476;2023-06-10T05:14:24;13.70;;;9.40;;
68866;SDS011;56451;44.804;20.476;2023-06-10T05:16:50;14.88;;;8.80;;
68866;SDS011;56451;44.804;20.476;2023-06-10T05:19:16;13.50;;;9.57;;
68866;SDS011;56451;44.804;20.476;2023-06-10T05:21:43;10.90;;;8.13;;
68866;SDS011;56451;44.804;20.476;2023-06-10T05:24:09;13.77;;;8.70;;
68866;SDS011;56451;44.804;20.476;2023-06-10T05:26:36;11.02;;;7.22;;
68866;SDS011;56451;44.804;20.476;2023-06-10T05:29:04;11.93;;;7.13;;
68866;SDS011;56451;44.804;20.476;2023-06-10T05:31:30;9.70;;;6.97;;
68866;SDS011;56451;44.804;20.476;2023-06-10T05:33:56;10.35;;;7.07;;
68866;SDS011;56451;44.804;20.476;2023-06-10T05:36:23;8.30;;;6.90;;
68866;SDS011;56451;44.804;20.476;2023-06-10T05:38:50;9.95;;;7.20;;
68866;SDS011;56451;44.804;20.476;2023-06-10T05:41:16;12.23;;;6.95;;
68866;SDS011;56451;44.804;20.476;2023-06-10T05:43:42;12.77;;;7.17;;
68866;SDS011;56451;44.804;20.476;2023-06-10T05:46:09;12.13;;;7.45;;
68866;SDS011;56451;44.804;20.476;2023-06-10T05:48:35;12.52;;;7.95;;
68866;SDS011;56451;44.804;20.476;2023-06-10T05:51:01;12.75;;;7.70;;
68866;SDS011;56451;44.804;20.476;2023-06-10T05:53:27;10.55;;;7.95;;
68866;SDS011;56451;44.804;20.476;2023-06-10T05:55:53;11.27;;;7.87;;
68866;SDS011;56451;44.804;20.476;2023-06-10T05:58:23;9.50;;;7.18;;
68866;SDS011;56451;44.804;20.476;2023-06-10T06:00:49;11.80;;;7.75;;
68866;SDS011;56451;44.804;20.476;2023-06-10T06:03:15;10.70;;;7.93;;
68866;SDS011;56451;44.804;20.476;2023-06-10T06:05:41;11.83;;;7.30;;
68866;SDS011;56451;44.804;20.476;2023-06-10T06:08:07;12.05;;;7.57;;
68866;SDS011;56451;44.804;20.476;2023-06-10T06:10:33;12.85;;;7.90;;
68866;SDS011;56451;44.804;20.476;2023-06-10T06:12:59;9.30;;;7.00;;
68866;SDS011;56451;44.804;20.476;2023-06-10T06:15:26;10.20;;;5.57;;
68866;SDS011;56451;44.804;20.476;2023-06-10T06:17:52;9.93;;;5.80;;
68866;SDS011;56451;44.804;20.476;2023-06-10T06:20:19;10.27;;;5.95;;
68866;SDS011;56451;44.804;20.476;2023-06-10T06:22:45;8.63;;;5.90;;
68866;SDS011;56451;44.804;20.476;2023-06-10T06:25:12;13.10;;;6.53;;
68866;SDS011;56451;44.804;20.476;2023-06-10T06:27:38;12.60;;;6.35;;
68866;SDS011;56451;44.804;20.476;2023-06-10T06:30:04;12.43;;;6.03;;
68866;SDS011;56451;44.804;20.476;2023-06-10T06:32:31;16.30;;;5.72;;
68866;SDS011;56451;44.804;20.476;2023-06-10T06:34:57;14.00;;;5.70;;
68866;SDS011;56451;44.804;20.476;2023-06-10T06:37:24;10.27;;;6.40;;
68866;SDS011;56451;44.804;20.476;2023-06-10T06:40:00;10.27;;;6.82;;
68866;SDS011;56451;44.804;20.476;2023-06-10T06:42:26;11.18;;;7.40;;
68866;SDS011;56451;44.804;20.476;2023-06-10T06:45:00;11.88;;;6.65;;
68866;SDS011;56451;44.804;20.476;2023-06-10T06:47:26;8.57;;;6.30;;
68866;SDS011;56451;44.804;20.476;2023-06-10T06:49:52;6.87;;;5.67;;
68866;SDS011;56451;44.804;20.476;2023-06-10T06:52:18;9.52;;;6.75;;
68866;SDS011;56451;44.804;20.476;2023-06-10T06:54:44;10.57;;;5.97;;
68866;SDS011;56451;44.804;20.476;2023-06-10T06:57:10;7.95;;;5.57;;
68866;SDS011;56451;44.804;20.476;2023-06-10T06:59:36;11.07;;;5.97;;
68866;SDS011;56451;44.804;20.476;2023-06-10T07:02:02;9.82;;;5.47;;
68866;SDS011;56451;44.804;20.476;2023-06-10T07:04:29;8.02;;;4.97;;
68866;SDS011;56451;44.804;20.476;2023-06-10T07:06:55;9.17;;;5.20;;
68866;SDS011;56451;44.804;20.476;2023-06-10T07:09:23;8.30;;;4.60;;
68866;SDS011;56451;44.804;20.476;2023-06-10T07:11:49;10.40;;;4.57;;
68866;SDS011;56451;44.804;20.476;2023-06-10T07:14:15;7.30;;;4.55;;
68866;SDS011;56451;44.804;20.476;2023-06-10T07:16:40;14.70;;;4.57;;
68866;SDS011;56451;44.804;20.476;2023-06-10T07:19:07;10.77;;;5.15;;
68866;SDS011;56451;44.804;20.476;2023-06-10T07:21:32;9.45;;;4.68;;
68866;SDS011;56451;44.804;20.476;2023-06-10T07:23:59;6.93;;;4.37;;
68866;SDS011;56451;44.804;20.476;2023-06-10T07:26:25;9.50;;;4.32;;
68866;SDS011;56451;44.804;20.476;2023-06-10T07:28:52;8.45;;;4.50;;
68866;SDS011;56451;44.804;20.476;2023-06-10T07:31:18;7.18;;;4.40;;
68866;SDS011;56451;44.804;20.476;2023-06-10T07:33:44;7.43;;;3.78;;
68866;SDS011;56451;44.804;20.476;2023-06-10T07:36:10;7.40;;;4.00;;
68866;SDS011;56451;44.804;20.476;2023-06-10T07:38:36;6.35;;;3.85;;
68866;SDS011;56451;44.804;20.476;2023-06-10T07:41:02;7.22;;;3.78;;
68866;SDS011;56451;44.804;20.476;2023-06-10T07:43:29;5.65;;;4.00;;
68866;SDS011;56451;44.804;20.476;2023-06-10T07:45:55;8.57;;;4.00;;
68866;SDS011;56451;44.804;20.476;2023-06-10T07:48:20;5.28;;;3.80;;
68866;SDS011;56451;44.804;20.476;2023-06-10T07:50:46;6.90;;;4.38;;
68866;SDS011;56451;44.804;20.476;2023-06-10T07:53:12;9.10;;;4.30;;
68866;SDS011;56451;44.804;20.476;2023-06-10T07:55:38;6.88;;;3.97;;
68866;SDS011;56451;44.804;20.476;2023-06-10T07:58:04;6.37;;;3.50;;
68866;SDS011;56451;44.804;20.476;2023-06-10T08:00:29;5.53;;;3.28;;
68866;SDS011;56451;44.804;20.476;2023-06-10T08:02:55;4.60;;;3.33;;
68866;SDS011;56451;44.804;20.476;2023-06-10T08:05:22;4.43;;;3.33;;
68866;SDS011;56451;44.804;20.476;2023-06-10T08:07:48;7.78;;;3.63;;
68866;SDS011;56451;44.804;20.476;2023-06-10T08:10:13;7.20;;;4.60;;
68866;SDS011;56451;44.804;20.476;2023-06-10T08:12:39;6.97;;;4.40;;
68866;SDS011;56451;44.804;20.476;2023-06-10T08:15:05;6.90;;;3.97;;
68866;SDS011;56451;44.804;20.476;2023-06-10T08:17:31;4.70;;;3.83;;
68866;SDS011;56451;44.804;20.476;2023-06-10T08:19:57;4.53;;;3.35;;
68866;SDS011;56451;44.804;20.476;2023-06-10T08:22:23;4.53;;;3.30;;
68866;SDS011;56451;44.804;20.476;2023-06-10T08:24:49;4.35;;;3.33;;
68866;SDS011;56451;44.804;20.476;2023-06-10T08:27:15;6.53;;;4.30;;
68866;SDS011;56451;44.804;20.476;2023-06-10T08:29:41;7.07;;;4.80;;
68866;SDS011;56451;44.804;20.476;2023-06-10T08:32:07;9.60;;;4.85;;
68866;SDS011;56451;44.804;20.476;2023-06-10T08:34:33;6.22;;;3.90;;
68866;SDS011;56451;44.804;20.476;2023-06-10T08:37:03;5.38;;;4.07;;
68866;SDS011;56451;44.804;20.476;2023-06-10T08:39:29;5.28;;;4.18;;
68866;SDS011;56451;44.804;20.476;2023-06-10T08:44:42;5.35;;;3.80;;
68866;SDS011;56451;44.804;20.476;2023-06-10T08:47:13;5.13;;;3.88;;
68866;SDS011;56451;44.804;20.476;2023-06-10T08:49:41;5.20;;;3.15;;
68866;SDS011;56451;44.804;20.476;2023-06-10T08:52:11;4.88;;;3.70;;
68866;SDS011;56451;44.804;20.476;2023-06-10T08:54:42;5.23;;;3.53;;
68866;SDS011;56451;44.804;20.476;2023-06-10T08:57:12;4.22;;;3.42;;
68866;SDS011;56451;44.804;20.476;2023-06-10T08:59:38;4.22;;;3.22;;
68866;SDS011;56451;44.804;20.476;2023-06-10T09:02:04;4.13;;;3.10;;
68866;SDS011;56451;44.804;20.476;2023-06-10T09:04:32;4.55;;;3.13;;
68866;SDS011;56451;44.804;20.476;2023-06-10T09:06:59;5.23;;;3.53;;
68866;SDS011;56451;44.804;20.476;2023-06-10T09:09:26;3.72;;;3.10;;
68866;SDS011;56451;44.804;20.476;2023-06-10T09:11:55;4.40;;;2.92;;
68866;SDS011;56451;44.804;20.476;2023-06-10T09:14:21;5.47;;;3.45;;
68866;SDS011;56451;44.804;20.476;2023-06-10T09:16:48;7.22;;;4.10;;
68866;SDS011;56451;44.804;20.476;2023-06-10T09:19:18;6.60;;;4.33;;
68866;SDS011;56451;44.804;20.476;2023-06-10T09:21:46;5.18;;;4.18;;
68866;SDS011;56451;44.804;20.476;2023-06-10T09:24:12;4.78;;;4.07;;
68866;SDS011;56451;44.804;20.476;2023-06-10T09:26:38;5.53;;;3.95;;
68866;SDS011;56451;44.804;20.476;2023-06-10T09:29:05;5.20;;;3.63;;
68866;SDS011;56451;44.804;20.476;2023-06-10T09:31:34;4.07;;;3.40;;
68866;SDS011;56451;44.804;20.476;2023-06-10T09:34:20;5.93;;;4.15;;
68866;SDS011;56451;44.804;20.476;2023-06-10T09:36:50;4.60;;;3.58;;
68866;SDS011;56451;44.804;20.476;2023-06-10T09:39:17;5.30;;;3.70;;
68866;SDS011;56451;44.804;20.476;2023-06-10T09:41:44;4.60;;;3.70;;
68866;SDS011;56451;44.804;20.476;2023-06-10T09:44:12;6.93;;;4.93;;
68866;SDS011;56451;44.804;20.476;2023-06-10T09:46:40;6.40;;;4.70;;
68866;SDS011;56451;44.804;20.476;2023-06-10T09:49:06;5.88;;;3.90;;
68866;SDS011;56451;44.804;20.476;2023-06-10T09:51:33;5.68;;;4.65;;
68866;SDS011;56451;44.804;20.476;2023-06-10T09:53:59;4.83;;;4.00;;
68866;SDS011;56451;44.804;20.476;2023-06-10T09:56:32;6.57;;;5.05;;
68866;SDS011;56451;44.804;20.476;2023-06-10T09:59:02;5.38;;;4.63;;
68866;SDS011;56451;44.804;20.476;2023-06-10T10:01:30;6.13;;;4.95;;
68866;SDS011;56451;44.804;20.476;2023-06-10T10:03:57;6.10;;;4.45;;
68866;SDS011;56451;44.804;20.476;2023-06-10T10:06:23;5.30;;;3.70;;
68866;SDS011;56451;44.804;20.476;2023-06-10T10:08:50;4.93;;;4.22;;
68866;SDS011;56451;44.804;20.476;2023-06-10T10:11:18;5.93;;;4.10;;
68866;SDS011;56451;44.804;20.476;2023-06-10T10:13:45;4.32;;;3.30;;
68866;SDS011;56451;44.804;20.476;2023-06-10T10:16:16;6.13;;;3.55;;
68866;SDS011;56451;44.804;20.476;2023-06-10T10:18:59;6.73;;;4.37;;
68866;SDS011;56451;44.804;20.476;2023-06-10T10:21:32;5.85;;;3.85;;
68866;SDS011;56451;44.804;20.476;2023-06-10T10:24:12;4.45;;;3.40;;
68866;SDS011;56451;44.804;20.476;2023-06-10T10:26:45;3.80;;;3.10;;
68866;SDS011;56451;44.804;20.476;2023-06-10T10:31:55;6.87;;;5.03;;
68866;SDS011;56451;44.804;20.476;2023-06-10T10:34:49;5.90;;;4.43;;
68866;SDS011;56451;44.804;20.476;2023-06-10T10:37:17;6.75;;;4.53;;
68866;SDS011;56451;44.804;20.476;2023-06-10T10:39:44;6.90;;;4.47;;
68866;SDS011;56451;44.804;20.476;2023-06-10T10:42:10;6.70;;;4.72;;
68866;SDS011;56451;44.804;20.476;2023-06-10T10:44:37;6.37;;;4.03;;
68866;SDS011;56451;44.804;20.476;2023-06-10T10:47:04;4.70;;;4.20;;
68866;SDS011;56451;44.804;20.476;2023-06-10T10:49:34;4.63;;;3.88;;
68866;SDS011;56451;44.804;20.476;2023-06-10T10:52:02;5.50;;;4.20;;
68866;SDS011;56451;44.804;20.476;2023-06-10T10:54:31;5.70;;;3.65;;
68866;SDS011;56451;44.804;20.476;2023-06-10T10:57:18;5.37;;;3.60;;
68866;SDS011;56451;44.804;20.476;2023-06-10T10:59:46;6.28;;;4.18;;
68866;SDS011;56451;44.804;20.476;2023-06-10T11:02:18;8.18;;;3.92;;
68866;SDS011;56451;44.804;20.476;2023-06-10T11:04:57;5.25;;;3.55;;
68866;SDS011;56451;44.804;20.476;2023-06-10T11:07:27;5.45;;;3.58;;
68866;SDS011;56451;44.804;20.476;2023-06-10T11:12:58;3.25;;;2.75;;
68866;SDS011;56451;44.804;20.476;2023-06-10T11:15:25;5.93;;;3.00;;
68866;SDS011;56451;44.804;20.476;2023-06-10T11:18:07;3.50;;;3.17;;
68866;SDS011;56451;44.804;20.476;2023-06-10T11:29:03;7.32;;;3.28;;
68866;SDS011;56451;44.804;20.476;2023-06-10T11:31:31;3.78;;;2.72;;
68866;SDS011;56451;44.804;20.476;2023-06-10T11:33:59;3.97;;;3.15;;
68866;SDS011;56451;44.804;20.476;2023-06-10T11:36:27;3.47;;;2.47;;
68866;SDS011;56451;44.804;20.476;2023-06-10T11:38:55;3.10;;;2.63;;
68866;SDS011;56451;44.804;20.476;2023-06-10T11:41:26;5.68;;;2.90;;
68866;SDS011;56451;44.804;20.476;2023-06-10T11:43:53;3.50;;;2.75;;
68866;SDS011;56451;44.804;20.476;2023-06-10T11:46:22;2.92;;;2.63;;
68866;SDS011;56451;44.804;20.476;2023-06-10T11:48:52;3.27;;;2.40;;
68866;SDS011;56451;44.804;20.476;2023-06-10T11:51:19;2.50;;;2.08;;
68866;SDS011;56451;44.804;20.476;2023-06-10T11:53:48;3.80;;;2.40;;
68866;SDS011;56451;44.804;20.476;2023-06-10T11:56:21;3.88;;;2.45;;
68866;SDS011;56451;44.804;20.476;2023-06-10T11:58:55;2.85;;;2.53;;
68866;SDS011;56451;44.804;20.476;2023-06-10T12:01:23;3.67;;;2.60;;
68866;SDS011;56451;44.804;20.476;2023-06-10T12:04:00;4.13;;;3.30;;
68866;SDS011;56451;44.804;20.476;2023-06-10T12:06:26;3.15;;;2.85;;
68866;SDS011;56451;44.804;20.476;2023-06-10T12:08:53;3.22;;;2.80;;
68866;SDS011;56451;44.804;20.476;2023-06-10T12:11:20;4.15;;;2.55;;
68866;SDS011;56451;44.804;20.476;2023-06-10T12:13:47;3.57;;;2.93;;
68866;SDS011;56451;44.804;20.476;2023-06-10T12:16:14;3.15;;;2.40;;
68866;SDS011;56451;44.804;20.476;2023-06-10T12:18:43;3.65;;;2.78;;
68866;SDS011;56451;44.804;20.476;2023-06-10T12:21:20;3.58;;;2.60;;
68866;SDS011;56451;44.804;20.476;2023-06-10T12:24:02;2.78;;;2.50;;
68866;SDS011;56451;44.804;20.476;2023-06-10T12:26:41;3.53;;;2.60;;
68866;SDS011;56451;44.804;20.476;2023-06-10T12:31:58;2.88;;;2.58;;
68866;SDS011;56451;44.804;20.476;2023-06-10T12:34:32;3.20;;;2.47;;
68866;SDS011;56451;44.804;20.476;2023-06-10T12:37:01;2.95;;;2.65;;
68866;SDS011;56451;44.804;20.476;2023-06-10T12:39:30;3.50;;;2.70;;
68866;SDS011;56451;44.804;20.476;2023-06-10T12:41:57;3.85;;;3.08;;
68866;SDS011;56451;44.804;20.476;2023-06-10T12:44:30;3.92;;;2.97;;
68866;SDS011;56451;44.804;20.476;2023-06-10T12:46:57;4.13;;;2.97;;
68866;SDS011;56451;44.804;20.476;2023-06-10T12:49:23;4.80;;;2.55;;
68866;SDS011;56451;44.804;20.476;2023-06-10T12:51:49;5.03;;;2.73;;
68866;SDS011;56451;44.804;20.476;2023-06-10T12:54:15;4.53;;;2.45;;
68866;SDS011;56451;44.804;20.476;2023-06-10T12:56:41;3.63;;;2.58;;
68866;SDS011;56451;44.804;20.476;2023-06-10T12:59:07;2.97;;;2.60;;
68866;SDS011;56451;44.804;20.476;2023-06-10T13:01:34;3.17;;;2.83;;
68866;SDS011;56451;44.804;20.476;2023-06-10T13:03:59;4.15;;;2.72;;
68866;SDS011;56451;44.804;20.476;2023-06-10T13:06:25;3.40;;;2.53;;
68866;SDS011;56451;44.804;20.476;2023-06-10T13:08:51;7.90;;;2.63;;
68866;SDS011;56451;44.804;20.476;2023-06-10T13:11:18;3.58;;;2.35;;
68866;SDS011;56451;44.804;20.476;2023-06-10T13:13:44;4.22;;;2.78;;
68866;SDS011;56451;44.804;20.476;2023-06-10T13:16:11;2.60;;;2.30;;
68866;SDS011;56451;44.804;20.476;2023-06-10T13:18:37;3.20;;;2.80;;
68866;SDS011;56451;44.804;20.476;2023-06-10T13:21:03;2.80;;;2.50;;
68866;SDS011;56451;44.804;20.476;2023-06-10T13:23:29;4.15;;;2.80;;
68866;SDS011;56451;44.804;20.476;2023-06-10T13:25:57;3.63;;;2.92;;
68866;SDS011;56451;44.804;20.476;2023-06-10T13:28:23;4.28;;;2.80;;
68866;SDS011;56451;44.804;20.476;2023-06-10T13:30:49;6.53;;;3.53;;
68866;SDS011;56451;44.804;20.476;2023-06-10T13:33:15;3.27;;;2.73;;
68866;SDS011;56451;44.804;20.476;2023-06-10T13:35:41;4.55;;;2.70;;
68866;SDS011;56451;44.804;20.476;2023-06-10T13:38:08;6.10;;;2.67;;
68866;SDS011;56451;44.804;20.476;2023-06-10T13:40:34;5.65;;;2.70;;
68866;SDS011;56451;44.804;20.476;2023-06-10T13:43:00;6.30;;;3.47;;
68866;SDS011;56451;44.804;20.476;2023-06-10T13:45:26;6.17;;;3.13;;
68866;SDS011;56451;44.804;20.476;2023-06-10T13:47:53;4.72;;;2.85;;
68866;SDS011;56451;44.804;20.476;2023-06-10T13:50:19;3.25;;;2.80;;
68866;SDS011;56451;44.804;20.476;2023-06-10T13:52:45;5.45;;;2.85;;
68866;SDS011;56451;44.804;20.476;2023-06-10T13:55:11;4.20;;;2.70;;
68866;SDS011;56451;44.804;20.476;2023-06-10T13:57:37;3.33;;;3.03;;
68866;SDS011;56451;44.804;20.476;2023-06-10T14:00:03;5.68;;;3.30;;
68866;SDS011;56451;44.804;20.476;2023-06-10T14:02:31;4.80;;;3.15;;
68866;SDS011;56451;44.804;20.476;2023-06-10T14:04:57;5.93;;;3.58;;
68866;SDS011;56451;44.804;20.476;2023-06-10T14:07:23;3.70;;;3.07;;
68866;SDS011;56451;44.804;20.476;2023-06-10T14:09:49;9.02;;;3.22;;
68866;SDS011;56451;44.804;20.476;2023-06-10T14:12:16;3.80;;;2.15;;
68866;SDS011;56451;44.804;20.476;2023-06-10T14:14:42;2.70;;;2.20;;
68866;SDS011;56451;44.804;20.476;2023-06-10T14:17:08;6.65;;;2.17;;
68866;SDS011;56451;44.804;20.476;2023-06-10T14:19:34;3.30;;;2.10;;
68866;SDS011;56451;44.804;20.476;2023-06-10T14:22:00;4.13;;;2.22;;
68866;SDS011;56451;44.804;20.476;2023-06-10T14:24:26;2.67;;;2.30;;
68866;SDS011;56451;44.804;20.476;2023-06-10T14:26:52;5.65;;;2.90;;
68866;SDS011;56451;44.804;20.476;2023-06-10T14:29:18;3.95;;;2.97;;
68866;SDS011;56451;44.804;20.476;2023-06-10T14:31:45;6.03;;;3.30;;
68866;SDS011;56451;44.804;20.476;2023-06-10T14:34:11;3.47;;;3.03;;
68866;SDS011;56451;44.804;20.476;2023-06-10T14:36:39;4.28;;;3.17;;
68866;SDS011;56451;44.804;20.476;2023-06-10T14:39:05;3.53;;;2.63;;
68866;SDS011;56451;44.804;20.476;2023-06-10T14:41:31;5.20;;;3.00;;
68866;SDS011;56451;44.804;20.476;2023-06-10T14:43:57;4.68;;;3.30;;
68866;SDS011;56451;44.804;20.476;2023-06-10T14:46:23;4.00;;;3.25;;
68866;SDS011;56451;44.804;20.476;2023-06-10T14:48:49;4.38;;;3.50;;
68866;SDS011;56451;44.804;20.476;2023-06-10T14:51:17;4.50;;;3.67;;
68866;SDS011;56451;44.804;20.476;2023-06-10T14:53:43;7.85;;;3.60;;
68866;SDS011;56451;44.804;20.476;2023-06-10T14:56:09;4.00;;;3.50;;